sensor_id;sensor_type;location;lat;lon;timestamp;P1;durP1;ratioP1;P2;durP2;ratioP2
51792;SDS011;37850;53.178;6.376;2022-08-21T00:01:22;6.80;;;3.15;;
51792;SDS011;37850;53.178;6.376;2022-08-21T00:03:51;11.77;;;3.30;;
51792;SDS011;37850;53.178;6.376;2022-08-21T00:06:17;8.80;;;3.13;;
51792;SDS011;37850;53.178;6.376;2022-08-21T00:08:44;11.65;;;2.80;;
51792;SDS011;37850;53.178;6.376;2022-08-21T00:11:10;8.38;;;3.25;;
51792;SDS011;37850;53.178;6.376;2022-08-21T00:13:35;7.57;;;2.97;;
51792;SDS011;37850;53.178;6.376;2022-08-21T00:16:02;9.98;;;3.20;;
51792;SDS011;37850;53.178;6.376;2022-08-21T00:18:28;7.28;;;2.67;;
51792;SDS011;37850;53.178;6.376;2022-08-21T00:20:54;8.23;;;2.83;;
51792;SDS011;37850;53.178;6.376;2022-08-21T00:23:20;6.75;;;3.00;;
51792;SDS011;37850;53.178;6.376;2022-08-21T00:25:46;8.13;;;2.78;;
51792;SDS011;37850;53.178;6.376;2022-08-21T00:28:12;9.55;;;2.70;;
51792;SDS011;37850;53.178;6.376;2022-08-21T00:30:38;8.57;;;2.45;;
51792;SDS011;37850;53.178;6.376;2022-08-21T00:33:05;7.20;;;2.40;;
51792;SDS011;37850;53.178;6.376;2022-08-21T00:35:32;10.85;;;3.10;;
51792;SDS011;37850;53.178;6.376;2022-08-21T00:38:04;8.82;;;3.03;;
51792;SDS011;37850;53.178;6.376;2022-08-21T00:40:37;6.70;;;2.58;;
51792;SDS011;37850;53.178;6.376;2022-08-21T00:43:10;7.43;;;2.40;;
51792;SDS011;37850;53.178;6.376;2022-08-21T00:45:37;9.68;;;3.22;;
51792;SDS011;37850;53.178;6.376;2022-08-21T00:48:03;9.88;;;3.20;;
51792;SDS011;37850;53.178;6.376;2022-08-21T00:50:31;4.95;;;2.30;;
51792;SDS011;37850;53.178;6.376;2022-08-21T00:53:00;8.73;;;2.60;;
51792;SDS011;37850;53.178;6.376;2022-08-21T00:55:27;10.50;;;2.83;;
51792;SDS011;37850;53.178;6.376;2022-08-21T00:57:55;7.63;;;2.72;;
51792;SDS011;37850;53.178;6.376;2022-08-21T01:00:24;6.75;;;2.83;;
51792;SDS011;37850;53.178;6.376;2022-08-21T01:05:19;6.65;;;2.53;;
51792;SDS011;37850;53.178;6.376;2022-08-21T01:07:45;7.32;;;2.90;;
51792;SDS011;37850;53.178;6.376;2022-08-21T01:10:11;8.48;;;2.70;;
51792;SDS011;37850;53.178;6.376;2022-08-21T01:12:39;8.90;;;3.45;;
51792;SDS011;37850;53.178;6.376;2022-08-21T01:15:06;7.35;;;2.78;;
51792;SDS011;37850;53.178;6.376;2022-08-21T01:17:33;10.85;;;3.83;;
51792;SDS011;37850;53.178;6.376;2022-08-21T01:20:01;9.10;;;3.00;;
51792;SDS011;37850;53.178;6.376;2022-08-21T01:22:32;8.40;;;3.60;;
51792;SDS011;37850;53.178;6.376;2022-08-21T01:24:58;6.80;;;2.83;;
51792;SDS011;37850;53.178;6.376;2022-08-21T01:27:24;8.73;;;3.20;;
51792;SDS011;37850;53.178;6.376;2022-08-21T01:29:57;8.10;;;3.28;;
51792;SDS011;37850;53.178;6.376;2022-08-21T01:32:26;10.35;;;3.40;;
51792;SDS011;37850;53.178;6.376;2022-08-21T01:34:52;11.05;;;4.10;;
51792;SDS011;37850;53.178;6.376;2022-08-21T01:37:20;11.75;;;3.72;;
51792;SDS011;37850;53.178;6.376;2022-08-21T01:39:47;9.25;;;3.45;;
51792;SDS011;37850;53.178;6.376;2022-08-21T01:42:14;8.65;;;3.40;;
51792;SDS011;37850;53.178;6.376;2022-08-21T01:44:40;9.82;;;3.35;;
51792;SDS011;37850;53.178;6.376;2022-08-21T01:47:07;9.30;;;4.05;;
51792;SDS011;37850;53.178;6.376;2022-08-21T01:49:35;7.97;;;3.40;;
51792;SDS011;37850;53.178;6.376;2022-08-21T01:52:02;8.98;;;3.88;;
51792;SDS011;37850;53.178;6.376;2022-08-21T01:54:29;10.10;;;3.90;;
51792;SDS011;37850;53.178;6.376;2022-08-21T01:56:55;10.10;;;3.92;;
51792;SDS011;37850;53.178;6.376;2022-08-21T01:59:22;10.10;;;4.20;;
51792;SDS011;37850;53.178;6.376;2022-08-21T02:01:49;9.63;;;4.05;;
51792;SDS011;37850;53.178;6.376;2022-08-21T02:04:15;13.40;;;5.18;;
51792;SDS011;37850;53.178;6.376;2022-08-21T02:06:41;9.43;;;3.50;;
51792;SDS011;37850;53.178;6.376;2022-08-21T02:09:08;11.55;;;4.57;;
51792;SDS011;37850;53.178;6.376;2022-08-21T02:11:35;10.45;;;4.32;;
51792;SDS011;37850;53.178;6.376;2022-08-21T02:14:05;8.77;;;3.83;;
51792;SDS011;37850;53.178;6.376;2022-08-21T02:16:36;11.77;;;4.88;;
51792;SDS011;37850;53.178;6.376;2022-08-21T02:19:02;12.80;;;4.47;;
51792;SDS011;37850;53.178;6.376;2022-08-21T02:21:29;9.82;;;5.07;;
51792;SDS011;37850;53.178;6.376;2022-08-21T02:23:54;14.05;;;4.10;;
51792;SDS011;37850;53.178;6.376;2022-08-21T02:26:20;8.60;;;4.07;;
51792;SDS011;37850;53.178;6.376;2022-08-21T02:28:46;12.63;;;4.93;;
51792;SDS011;37850;53.178;6.376;2022-08-21T02:31:13;15.98;;;6.20;;
51792;SDS011;37850;53.178;6.376;2022-08-21T02:33:39;10.27;;;4.85;;
51792;SDS011;37850;53.178;6.376;2022-08-21T02:36:05;12.07;;;4.63;;
51792;SDS011;37850;53.178;6.376;2022-08-21T02:38:33;12.43;;;4.38;;
51792;SDS011;37850;53.178;6.376;2022-08-21T02:41:03;14.65;;;6.30;;
51792;SDS011;37850;53.178;6.376;2022-08-21T02:43:34;12.45;;;5.47;;
51792;SDS011;37850;53.178;6.376;2022-08-21T02:46:05;9.82;;;5.28;;
51792;SDS011;37850;53.178;6.376;2022-08-21T02:48:32;12.27;;;5.43;;
51792;SDS011;37850;53.178;6.376;2022-08-21T02:51:03;12.98;;;5.72;;
51792;SDS011;37850;53.178;6.376;2022-08-21T02:53:31;13.65;;;6.35;;
51792;SDS011;37850;53.178;6.376;2022-08-21T02:55:58;15.00;;;6.20;;
51792;SDS011;37850;53.178;6.376;2022-08-21T02:58:29;10.07;;;6.30;;
51792;SDS011;37850;53.178;6.376;2022-08-21T03:00:58;16.05;;;7.43;;
51792;SDS011;37850;53.178;6.376;2022-08-21T03:03:24;13.18;;;6.72;;
51792;SDS011;37850;53.178;6.376;2022-08-21T03:05:51;13.25;;;6.22;;
51792;SDS011;37850;53.178;6.376;2022-08-21T03:08:18;15.48;;;6.63;;
51792;SDS011;37850;53.178;6.376;2022-08-21T03:10:46;12.38;;;5.95;;
51792;SDS011;37850;53.178;6.376;2022-08-21T03:13:14;17.65;;;7.47;;
51792;SDS011;37850;53.178;6.376;2022-08-21T03:15:40;15.70;;;7.50;;
51792;SDS011;37850;53.178;6.376;2022-08-21T03:18:07;12.48;;;6.95;;
51792;SDS011;37850;53.178;6.376;2022-08-21T03:20:34;14.75;;;6.60;;
51792;SDS011;37850;53.178;6.376;2022-08-21T03:23:03;14.00;;;7.15;;
51792;SDS011;37850;53.178;6.376;2022-08-21T03:25:31;11.23;;;7.03;;
51792;SDS011;37850;53.178;6.376;2022-08-21T03:27:57;15.02;;;6.95;;
51792;SDS011;37850;53.178;6.376;2022-08-21T03:30:23;16.27;;;7.47;;
51792;SDS011;37850;53.178;6.376;2022-08-21T03:32:49;15.73;;;6.97;;
51792;SDS011;37850;53.178;6.376;2022-08-21T03:35:19;15.02;;;7.72;;
51792;SDS011;37850;53.178;6.376;2022-08-21T03:37:45;12.75;;;7.07;;
51792;SDS011;37850;53.178;6.376;2022-08-21T03:40:13;13.32;;;6.57;;
51792;SDS011;37850;53.178;6.376;2022-08-21T03:42:41;15.68;;;6.70;;
51792;SDS011;37850;53.178;6.376;2022-08-21T03:45:07;10.25;;;6.38;;
51792;SDS011;37850;53.178;6.376;2022-08-21T03:47:33;14.35;;;6.43;;
51792;SDS011;37850;53.178;6.376;2022-08-21T03:50:01;13.88;;;7.25;;
51792;SDS011;37850;53.178;6.376;2022-08-21T03:52:28;15.20;;;7.82;;
51792;SDS011;37850;53.178;6.376;2022-08-21T03:54:54;16.23;;;8.07;;
51792;SDS011;37850;53.178;6.376;2022-08-21T03:57:19;12.60;;;7.03;;
51792;SDS011;37850;53.178;6.376;2022-08-21T03:59:46;14.52;;;6.90;;
51792;SDS011;37850;53.178;6.376;2022-08-21T04:02:13;12.75;;;7.10;;
51792;SDS011;37850;53.178;6.376;2022-08-21T04:04:41;11.55;;;6.85;;
51792;SDS011;37850;53.178;6.376;2022-08-21T04:07:06;12.85;;;6.55;;
51792;SDS011;37850;53.178;6.376;2022-08-21T04:09:32;13.82;;;7.03;;
51792;SDS011;37850;53.178;6.376;2022-08-21T04:11:58;11.63;;;6.13;;
51792;SDS011;37850;53.178;6.376;2022-08-21T04:14:24;12.50;;;7.28;;
51792;SDS011;37850;53.178;6.376;2022-08-21T04:16:50;15.25;;;6.95;;
51792;SDS011;37850;53.178;6.376;2022-08-21T04:19:16;10.13;;;6.00;;
51792;SDS011;37850;53.178;6.376;2022-08-21T04:21:41;12.93;;;7.20;;
51792;SDS011;37850;53.178;6.376;2022-08-21T04:24:08;15.45;;;7.45;;
51792;SDS011;37850;53.178;6.376;2022-08-21T04:26:35;12.40;;;6.43;;
51792;SDS011;37850;53.178;6.376;2022-08-21T04:29:02;14.07;;;6.93;;
51792;SDS011;37850;53.178;6.376;2022-08-21T04:31:28;12.70;;;6.80;;
51792;SDS011;37850;53.178;6.376;2022-08-21T04:33:53;15.60;;;6.68;;
51792;SDS011;37850;53.178;6.376;2022-08-21T04:36:20;20.13;;;7.47;;
51792;SDS011;37850;53.178;6.376;2022-08-21T04:38:46;14.13;;;7.15;;
51792;SDS011;37850;53.178;6.376;2022-08-21T04:41:11;12.40;;;6.53;;
51792;SDS011;37850;53.178;6.376;2022-08-21T04:43:37;14.85;;;7.03;;
51792;SDS011;37850;53.178;6.376;2022-08-21T04:46:03;15.68;;;6.72;;
51792;SDS011;37850;53.178;6.376;2022-08-21T04:48:30;11.63;;;6.63;;
51792;SDS011;37850;53.178;6.376;2022-08-21T04:51:00;12.45;;;5.68;;
51792;SDS011;37850;53.178;6.376;2022-08-21T04:53:37;15.75;;;6.63;;
51792;SDS011;37850;53.178;6.376;2022-08-21T04:58:48;15.02;;;6.57;;
51792;SDS011;37850;53.178;6.376;2022-08-21T05:01:16;14.57;;;6.93;;
51792;SDS011;37850;53.178;6.376;2022-08-21T05:03:45;13.00;;;6.53;;
51792;SDS011;37850;53.178;6.376;2022-08-21T05:06:13;16.80;;;7.18;;
51792;SDS011;37850;53.178;6.376;2022-08-21T05:08:42;14.55;;;6.50;;
51792;SDS011;37850;53.178;6.376;2022-08-21T05:11:10;16.73;;;6.68;;
51792;SDS011;37850;53.178;6.376;2022-08-21T05:13:36;16.30;;;6.38;;
51792;SDS011;37850;53.178;6.376;2022-08-21T05:16:02;15.82;;;6.32;;
51792;SDS011;37850;53.178;6.376;2022-08-21T05:18:28;13.55;;;6.22;;
51792;SDS011;37850;53.178;6.376;2022-08-21T05:20:53;16.98;;;6.22;;
51792;SDS011;37850;53.178;6.376;2022-08-21T05:23:19;11.20;;;6.35;;
51792;SDS011;37850;53.178;6.376;2022-08-21T05:25:45;13.45;;;5.70;;
51792;SDS011;37850;53.178;6.376;2022-08-21T05:28:11;14.45;;;6.15;;
51792;SDS011;37850;53.178;6.376;2022-08-21T05:30:37;15.05;;;6.38;;
51792;SDS011;37850;53.178;6.376;2022-08-21T05:33:04;13.27;;;6.18;;
51792;SDS011;37850;53.178;6.376;2022-08-21T05:35:31;13.45;;;5.38;;
51792;SDS011;37850;53.178;6.376;2022-08-21T05:37:58;13.50;;;5.68;;
51792;SDS011;37850;53.178;6.376;2022-08-21T05:40:25;14.57;;;6.72;;
51792;SDS011;37850;53.178;6.376;2022-08-21T05:42:51;10.93;;;5.53;;
51792;SDS011;37850;53.178;6.376;2022-08-21T05:45:18;18.13;;;6.18;;
51792;SDS011;37850;53.178;6.376;2022-08-21T05:47:44;15.73;;;5.93;;
51792;SDS011;37850;53.178;6.376;2022-08-21T05:50:10;12.38;;;5.88;;
51792;SDS011;37850;53.178;6.376;2022-08-21T05:52:36;14.27;;;5.90;;
51792;SDS011;37850;53.178;6.376;2022-08-21T05:55:02;11.57;;;5.63;;
51792;SDS011;37850;53.178;6.376;2022-08-21T05:57:28;11.73;;;5.78;;
51792;SDS011;37850;53.178;6.376;2022-08-21T05:59:54;12.25;;;5.82;;
51792;SDS011;37850;53.178;6.376;2022-08-21T06:02:21;13.10;;;5.63;;
51792;SDS011;37850;53.178;6.376;2022-08-21T06:04:47;12.55;;;5.50;;
51792;SDS011;37850;53.178;6.376;2022-08-21T06:07:12;15.95;;;6.00;;
51792;SDS011;37850;53.178;6.376;2022-08-21T06:09:39;13.75;;;5.70;;
51792;SDS011;37850;53.178;6.376;2022-08-21T06:12:05;15.23;;;5.65;;
51792;SDS011;37850;53.178;6.376;2022-08-21T06:14:35;12.57;;;6.03;;
51792;SDS011;37850;53.178;6.376;2022-08-21T06:17:06;16.98;;;5.82;;
51792;SDS011;37850;53.178;6.376;2022-08-21T06:19:33;16.35;;;5.07;;
51792;SDS011;37850;53.178;6.376;2022-08-21T06:21:59;14.55;;;5.57;;
51792;SDS011;37850;53.178;6.376;2022-08-21T06:24:25;14.70;;;6.00;;
51792;SDS011;37850;53.178;6.376;2022-08-21T06:26:52;12.07;;;5.25;;
51792;SDS011;37850;53.178;6.376;2022-08-21T06:29:18;14.32;;;5.20;;
51792;SDS011;37850;53.178;6.376;2022-08-21T06:31:45;15.70;;;5.30;;
51792;SDS011;37850;53.178;6.376;2022-08-21T06:34:11;15.82;;;5.15;;
51792;SDS011;37850;53.178;6.376;2022-08-21T06:36:38;12.95;;;5.72;;
51792;SDS011;37850;53.178;6.376;2022-08-21T06:39:03;18.85;;;5.80;;
51792;SDS011;37850;53.178;6.376;2022-08-21T06:41:29;15.15;;;5.53;;
51792;SDS011;37850;53.178;6.376;2022-08-21T06:43:56;15.23;;;5.68;;
51792;SDS011;37850;53.178;6.376;2022-08-21T06:46:22;11.02;;;5.45;;
51792;SDS011;37850;53.178;6.376;2022-08-21T06:48:49;11.50;;;4.75;;
51792;SDS011;37850;53.178;6.376;2022-08-21T06:51:15;11.60;;;5.20;;
51792;SDS011;37850;53.178;6.376;2022-08-21T06:53:41;14.30;;;4.72;;
51792;SDS011;37850;53.178;6.376;2022-08-21T06:56:07;13.82;;;4.95;;
51792;SDS011;37850;53.178;6.376;2022-08-21T06:58:33;14.90;;;4.55;;
51792;SDS011;37850;53.178;6.376;2022-08-21T07:00:59;11.57;;;4.90;;
51792;SDS011;37850;53.178;6.376;2022-08-21T07:03:33;12.50;;;5.32;;
51792;SDS011;37850;53.178;6.376;2022-08-21T07:06:01;11.80;;;4.20;;
51792;SDS011;37850;53.178;6.376;2022-08-21T07:08:31;12.35;;;4.20;;
51792;SDS011;37850;53.178;6.376;2022-08-21T07:10:57;12.13;;;4.40;;
51792;SDS011;37850;53.178;6.376;2022-08-21T07:13:24;11.02;;;3.42;;
51792;SDS011;37850;53.178;6.376;2022-08-21T07:15:50;12.00;;;3.67;;
51792;SDS011;37850;53.178;6.376;2022-08-21T07:18:15;13.07;;;3.88;;
51792;SDS011;37850;53.178;6.376;2022-08-21T07:20:41;12.00;;;3.38;;
51792;SDS011;37850;53.178;6.376;2022-08-21T07:23:09;8.45;;;3.03;;
51792;SDS011;37850;53.178;6.376;2022-08-21T07:25:46;14.25;;;3.28;;
51792;SDS011;37850;53.178;6.376;2022-08-21T07:28:11;13.80;;;3.88;;
51792;SDS011;37850;53.178;6.376;2022-08-21T07:30:37;11.52;;;3.05;;
51792;SDS011;37850;53.178;6.376;2022-08-21T07:33:03;13.77;;;3.50;;
51792;SDS011;37850;53.178;6.376;2022-08-21T07:35:28;13.05;;;3.00;;
51792;SDS011;37850;53.178;6.376;2022-08-21T07:37:56;11.65;;;3.08;;
51792;SDS011;37850;53.178;6.376;2022-08-21T07:40:21;12.48;;;3.30;;
51792;SDS011;37850;53.178;6.376;2022-08-21T07:42:48;9.70;;;2.90;;
51792;SDS011;37850;53.178;6.376;2022-08-21T07:45:16;16.88;;;3.75;;
51792;SDS011;37850;53.178;6.376;2022-08-21T07:47:47;12.10;;;3.13;;
51792;SDS011;37850;53.178;6.376;2022-08-21T07:50:13;18.08;;;3.10;;
51792;SDS011;37850;53.178;6.376;2022-08-21T07:52:40;16.63;;;3.95;;
51792;SDS011;37850;53.178;6.376;2022-08-21T07:55:07;12.65;;;3.17;;
51792;SDS011;37850;53.178;6.376;2022-08-21T07:57:36;15.35;;;2.78;;
51792;SDS011;37850;53.178;6.376;2022-08-21T08:00:06;13.77;;;3.13;;
51792;SDS011;37850;53.178;6.376;2022-08-21T08:02:34;9.10;;;2.63;;
51792;SDS011;37850;53.178;6.376;2022-08-21T08:05:00;12.25;;;2.65;;
51792;SDS011;37850;53.178;6.376;2022-08-21T08:07:28;11.23;;;2.45;;
51792;SDS011;37850;53.178;6.376;2022-08-21T08:09:54;12.10;;;2.38;;
51792;SDS011;37850;53.178;6.376;2022-08-21T08:12:19;12.57;;;2.95;;
51792;SDS011;37850;53.178;6.376;2022-08-21T08:14:45;10.60;;;2.70;;
51792;SDS011;37850;53.178;6.376;2022-08-21T08:17:11;12.73;;;2.78;;
51792;SDS011;37850;53.178;6.376;2022-08-21T08:19:38;12.23;;;3.00;;
51792;SDS011;37850;53.178;6.376;2022-08-21T08:22:17;12.80;;;2.45;;
51792;SDS011;37850;53.178;6.376;2022-08-21T08:24:45;12.45;;;2.92;;
51792;SDS011;37850;53.178;6.376;2022-08-21T08:27:11;10.35;;;2.65;;
51792;SDS011;37850;53.178;6.376;2022-08-21T08:29:37;12.13;;;2.50;;
51792;SDS011;37850;53.178;6.376;2022-08-21T08:32:03;11.18;;;2.53;;
51792;SDS011;37850;53.178;6.376;2022-08-21T08:34:30;12.68;;;2.67;;
51792;SDS011;37850;53.178;6.376;2022-08-21T08:36:55;10.85;;;2.58;;
51792;SDS011;37850;53.178;6.376;2022-08-21T08:39:22;12.90;;;3.00;;
51792;SDS011;37850;53.178;6.376;2022-08-21T08:41:48;16.60;;;3.83;;
51792;SDS011;37850;53.178;6.376;2022-08-21T08:44:16;17.08;;;3.50;;
51792;SDS011;37850;53.178;6.376;2022-08-21T08:46:43;14.95;;;3.10;;
51792;SDS011;37850;53.178;6.376;2022-08-21T08:49:24;8.75;;;2.28;;
51792;SDS011;37850;53.178;6.376;2022-08-21T08:52:03;9.55;;;2.20;;
51792;SDS011;37850;53.178;6.376;2022-08-21T08:54:45;15.77;;;2.67;;
51792;SDS011;37850;53.178;6.376;2022-08-21T08:57:17;11.00;;;2.90;;
51792;SDS011;37850;53.178;6.376;2022-08-21T08:59:49;14.32;;;2.72;;
51792;SDS011;37850;53.178;6.376;2022-08-21T09:02:17;14.43;;;2.45;;
51792;SDS011;37850;53.178;6.376;2022-08-21T09:04:45;12.68;;;2.40;;
51792;SDS011;37850;53.178;6.376;2022-08-21T09:07:19;8.43;;;2.33;;
51792;SDS011;37850;53.178;6.376;2022-08-21T09:16:26;10.43;;;2.80;;
51792;SDS011;37850;53.178;6.376;2022-08-21T09:22:10;13.18;;;2.83;;
51792;SDS011;37850;53.178;6.376;2022-08-21T09:27:26;10.93;;;2.78;;
51792;SDS011;37850;53.178;6.376;2022-08-21T09:29:52;19.63;;;4.18;;
51792;SDS011;37850;53.178;6.376;2022-08-21T09:32:20;16.27;;;2.50;;
51792;SDS011;37850;53.178;6.376;2022-08-21T09:34:59;14.50;;;2.70;;
51792;SDS011;37850;53.178;6.376;2022-08-21T09:37:34;12.73;;;2.50;;
51792;SDS011;37850;53.178;6.376;2022-08-21T09:40:15;12.35;;;2.80;;
51792;SDS011;37850;53.178;6.376;2022-08-21T09:42:53;10.45;;;2.30;;
51792;SDS011;37850;53.178;6.376;2022-08-21T09:45:21;11.25;;;2.55;;
51792;SDS011;37850;53.178;6.376;2022-08-21T09:47:46;12.82;;;2.85;;
51792;SDS011;37850;53.178;6.376;2022-08-21T09:50:14;12.40;;;2.55;;
51792;SDS011;37850;53.178;6.376;2022-08-21T09:52:43;14.27;;;2.67;;
51792;SDS011;37850;53.178;6.376;2022-08-21T09:55:30;13.95;;;2.30;;
51792;SDS011;37850;53.178;6.376;2022-08-21T09:58:15;11.13;;;2.35;;
51792;SDS011;37850;53.178;6.376;2022-08-21T10:00:42;13.98;;;3.00;;
51792;SDS011;37850;53.178;6.376;2022-08-21T10:03:10;14.10;;;2.78;;
51792;SDS011;37850;53.178;6.376;2022-08-21T10:05:39;13.45;;;2.00;;
51792;SDS011;37850;53.178;6.376;2022-08-21T10:08:05;11.77;;;2.70;;
51792;SDS011;37850;53.178;6.376;2022-08-21T10:10:42;12.73;;;2.40;;
51792;SDS011;37850;53.178;6.376;2022-08-21T10:16:02;10.50;;;2.10;;
51792;SDS011;37850;53.178;6.376;2022-08-21T10:21:31;10.48;;;2.35;;
51792;SDS011;37850;53.178;6.376;2022-08-21T10:24:23;12.77;;;2.88;;
51792;SDS011;37850;53.178;6.376;2022-08-21T10:30:06;14.23;;;2.22;;
51792;SDS011;37850;53.178;6.376;2022-08-21T10:32:42;11.27;;;2.60;;
51792;SDS011;37850;53.178;6.376;2022-08-21T10:35:35;15.18;;;2.53;;
51792;SDS011;37850;53.178;6.376;2022-08-21T10:41:34;10.68;;;2.75;;
51792;SDS011;37850;53.178;6.376;2022-08-21T10:44:13;12.50;;;2.72;;
51792;SDS011;37850;53.178;6.376;2022-08-21T10:47:04;13.48;;;2.75;;
51792;SDS011;37850;53.178;6.376;2022-08-21T10:55:08;14.15;;;2.95;;
51792;SDS011;37850;53.178;6.376;2022-08-21T10:57:41;14.48;;;2.53;;
51792;SDS011;37850;53.178;6.376;2022-08-21T11:00:23;19.02;;;2.90;;
51792;SDS011;37850;53.178;6.376;2022-08-21T11:03:04;19.15;;;2.90;;
51792;SDS011;37850;53.178;6.376;2022-08-21T11:05:42;16.60;;;2.70;;
51792;SDS011;37850;53.178;6.376;2022-08-21T11:08:29;12.95;;;2.35;;
51792;SDS011;37850;53.178;6.376;2022-08-21T11:11:34;10.38;;;2.50;;
51792;SDS011;37850;53.178;6.376;2022-08-21T11:13:57;9.55;;;2.33;;
51792;SDS011;37850;53.178;6.376;2022-08-21T11:19:12;13.80;;;2.75;;
51792;SDS011;37850;53.178;6.376;2022-08-21T11:21:49;10.30;;;2.37;;
51792;SDS011;37850;53.178;6.376;2022-08-21T11:24:37;13.55;;;2.70;;
51792;SDS011;37850;53.178;6.376;2022-08-21T11:29:58;8.35;;;2.30;;
51792;SDS011;37850;53.178;6.376;2022-08-21T11:46:51;11.85;;;2.40;;
51792;SDS011;37850;53.178;6.376;2022-08-21T11:49:42;9.40;;;2.17;;
51792;SDS011;37850;53.178;6.376;2022-08-21T11:52:18;9.45;;;1.92;;
51792;SDS011;37850;53.178;6.376;2022-08-21T11:57:21;7.95;;;2.13;;
51792;SDS011;37850;53.178;6.376;2022-08-21T11:59:59;8.55;;;2.10;;
51792;SDS011;37850;53.178;6.376;2022-08-21T12:02:34;11.45;;;2.17;;
51792;SDS011;37850;53.178;6.376;2022-08-21T12:05:09;10.63;;;2.50;;
51792;SDS011;37850;53.178;6.376;2022-08-21T12:07:59;12.15;;;2.25;;
51792;SDS011;37850;53.178;6.376;2022-08-21T12:10:31;8.15;;;1.92;;
51792;SDS011;37850;53.178;6.376;2022-08-21T12:13:06;6.55;;;2.20;;
51792;SDS011;37850;53.178;6.376;2022-08-21T12:15:46;12.10;;;2.17;;
51792;SDS011;37850;53.178;6.376;2022-08-21T12:18:20;11.57;;;2.00;;
51792;SDS011;37850;53.178;6.376;2022-08-21T12:21:02;8.35;;;1.70;;
51792;SDS011;37850;53.178;6.376;2022-08-21T12:28:45;6.53;;;1.60;;
51792;SDS011;37850;53.178;6.376;2022-08-21T12:31:20;5.80;;;1.67;;
51792;SDS011;37850;53.178;6.376;2022-08-21T12:33:59;7.78;;;1.52;;
51792;SDS011;37850;53.178;6.376;2022-08-21T12:36:38;5.88;;;1.40;;
51792;SDS011;37850;53.178;6.376;2022-08-21T12:41:48;7.78;;;2.05;;
51792;SDS011;37850;53.178;6.376;2022-08-21T12:44:22;8.48;;;1.80;;
51792;SDS011;37850;53.178;6.376;2022-08-21T12:46:57;8.68;;;1.55;;
51792;SDS011;37850;53.178;6.376;2022-08-21T12:49:29;10.52;;;1.98;;
51792;SDS011;37850;53.178;6.376;2022-08-21T12:52:14;7.95;;;1.80;;
51792;SDS011;37850;53.178;6.376;2022-08-21T12:54:46;7.78;;;2.15;;
51792;SDS011;37850;53.178;6.376;2022-08-21T12:57:19;9.48;;;2.10;;
51792;SDS011;37850;53.178;6.376;2022-08-21T12:59:51;7.57;;;1.38;;
51792;SDS011;37850;53.178;6.376;2022-08-21T13:02:19;6.60;;;1.42;;
51792;SDS011;37850;53.178;6.376;2022-08-21T13:04:48;6.28;;;1.52;;
51792;SDS011;37850;53.178;6.376;2022-08-21T13:07:16;8.38;;;2.30;;
51792;SDS011;37850;53.178;6.376;2022-08-21T13:09:51;5.68;;;1.50;;
51792;SDS011;37850;53.178;6.376;2022-08-21T13:12:20;6.70;;;1.73;;
51792;SDS011;37850;53.178;6.376;2022-08-21T13:14:48;8.07;;;1.65;;
51792;SDS011;37850;53.178;6.376;2022-08-21T13:17:19;6.70;;;1.50;;
51792;SDS011;37850;53.178;6.376;2022-08-21T13:19:52;7.38;;;1.60;;
51792;SDS011;37850;53.178;6.376;2022-08-21T13:22:23;6.50;;;1.70;;
51792;SDS011;37850;53.178;6.376;2022-08-21T13:24:49;8.32;;;1.80;;
51792;SDS011;37850;53.178;6.376;2022-08-21T13:27:20;7.68;;;1.90;;
51792;SDS011;37850;53.178;6.376;2022-08-21T13:29:46;9.65;;;1.85;;
51792;SDS011;37850;53.178;6.376;2022-08-21T13:32:19;10.93;;;2.10;;
51792;SDS011;37850;53.178;6.376;2022-08-21T13:34:50;6.85;;;1.50;;
51792;SDS011;37850;53.178;6.376;2022-08-21T13:37:16;10.10;;;2.15;;
51792;SDS011;37850;53.178;6.376;2022-08-21T13:39:47;7.80;;;1.88;;
51792;SDS011;37850;53.178;6.376;2022-08-21T13:42:17;9.50;;;1.63;;
51792;SDS011;37850;53.178;6.376;2022-08-21T13:44:45;5.97;;;1.50;;
51792;SDS011;37850;53.178;6.376;2022-08-21T13:47:13;7.95;;;1.70;;
51792;SDS011;37850;53.178;6.376;2022-08-21T13:49:42;9.63;;;1.85;;
51792;SDS011;37850;53.178;6.376;2022-08-21T13:52:15;9.32;;;2.13;;
51792;SDS011;37850;53.178;6.376;2022-08-21T13:54:51;7.35;;;1.42;;
51792;SDS011;37850;53.178;6.376;2022-08-21T13:57:24;10.00;;;1.83;;
51792;SDS011;37850;53.178;6.376;2022-08-21T13:59:52;9.48;;;2.15;;
51792;SDS011;37850;53.178;6.376;2022-08-21T14:02:19;7.55;;;1.42;;
51792;SDS011;37850;53.178;6.376;2022-08-21T14:04:58;6.05;;;1.45;;
51792;SDS011;37850;53.178;6.376;2022-08-21T14:07:33;6.50;;;1.85;;
51792;SDS011;37850;53.178;6.376;2022-08-21T14:10:13;7.25;;;1.73;;
51792;SDS011;37850;53.178;6.376;2022-08-21T14:12:49;9.52;;;1.52;;
51792;SDS011;37850;53.178;6.376;2022-08-21T14:15:25;6.30;;;2.00;;
51792;SDS011;37850;53.178;6.376;2022-08-21T14:17:53;7.28;;;1.52;;
51792;SDS011;37850;53.178;6.376;2022-08-21T14:20:32;5.78;;;1.50;;
51792;SDS011;37850;53.178;6.376;2022-08-21T14:23:00;5.65;;;1.58;;
51792;SDS011;37850;53.178;6.376;2022-08-21T14:25:44;7.63;;;1.88;;
51792;SDS011;37850;53.178;6.376;2022-08-21T14:30:53;7.15;;;1.70;;
51792;SDS011;37850;53.178;6.376;2022-08-21T14:33:27;7.82;;;1.67;;
51792;SDS011;37850;53.178;6.376;2022-08-21T14:35:56;7.90;;;1.60;;
51792;SDS011;37850;53.178;6.376;2022-08-21T14:38:23;7.55;;;1.52;;
51792;SDS011;37850;53.178;6.376;2022-08-21T14:40:53;6.05;;;1.50;;
51792;SDS011;37850;53.178;6.376;2022-08-21T14:43:25;7.70;;;1.90;;
51792;SDS011;37850;53.178;6.376;2022-08-21T14:45:53;7.10;;;1.60;;
51792;SDS011;37850;53.178;6.376;2022-08-21T14:48:20;7.75;;;1.80;;
51792;SDS011;37850;53.178;6.376;2022-08-21T14:50:46;8.50;;;1.77;;
51792;SDS011;37850;53.178;6.376;2022-08-21T14:53:12;5.88;;;1.60;;
51792;SDS011;37850;53.178;6.376;2022-08-21T14:55:38;8.52;;;1.90;;
51792;SDS011;37850;53.178;6.376;2022-08-21T14:58:23;9.38;;;1.83;;
51792;SDS011;37850;53.178;6.376;2022-08-21T15:00:51;9.30;;;1.83;;
51792;SDS011;37850;53.178;6.376;2022-08-21T15:03:18;8.68;;;1.60;;
51792;SDS011;37850;53.178;6.376;2022-08-21T15:05:44;11.38;;;1.77;;
51792;SDS011;37850;53.178;6.376;2022-08-21T15:08:10;9.50;;;1.80;;
51792;SDS011;37850;53.178;6.376;2022-08-21T15:10:36;8.27;;;1.90;;
51792;SDS011;37850;53.178;6.376;2022-08-21T15:13:02;8.15;;;1.85;;
51792;SDS011;37850;53.178;6.376;2022-08-21T15:15:29;8.02;;;1.65;;
51792;SDS011;37850;53.178;6.376;2022-08-21T15:18:00;9.05;;;1.83;;
51792;SDS011;37850;53.178;6.376;2022-08-21T15:20:26;5.47;;;1.45;;
51792;SDS011;37850;53.178;6.376;2022-08-21T15:22:52;8.30;;;1.92;;
51792;SDS011;37850;53.178;6.376;2022-08-21T15:25:17;8.85;;;2.00;;
51792;SDS011;37850;53.178;6.376;2022-08-21T15:27:43;8.38;;;1.80;;
51792;SDS011;37850;53.178;6.376;2022-08-21T15:30:09;9.45;;;1.80;;
51792;SDS011;37850;53.178;6.376;2022-08-21T15:32:35;7.80;;;1.70;;
51792;SDS011;37850;53.178;6.376;2022-08-21T15:35:02;8.30;;;2.05;;
51792;SDS011;37850;53.178;6.376;2022-08-21T15:37:28;9.52;;;2.33;;
51792;SDS011;37850;53.178;6.376;2022-08-21T15:39:54;7.63;;;1.60;;
51792;SDS011;37850;53.178;6.376;2022-08-21T15:42:20;7.55;;;1.65;;
51792;SDS011;37850;53.178;6.376;2022-08-21T15:44:46;9.30;;;1.90;;
51792;SDS011;37850;53.178;6.376;2022-08-21T15:47:14;5.40;;;1.55;;
51792;SDS011;37850;53.178;6.376;2022-08-21T15:49:42;6.85;;;1.83;;
51792;SDS011;37850;53.178;6.376;2022-08-21T15:52:10;8.50;;;1.75;;
51792;SDS011;37850;53.178;6.376;2022-08-21T15:54:40;10.55;;;2.15;;
51792;SDS011;37850;53.178;6.376;2022-08-21T15:57:06;8.57;;;2.05;;
51792;SDS011;37850;53.178;6.376;2022-08-21T15:59:38;9.60;;;1.77;;
51792;SDS011;37850;53.178;6.376;2022-08-21T16:02:07;8.90;;;1.95;;